createdAt,value
2023-03-03T00:00:58.705Z,94653.94
2023-03-03T00:03:27.489Z,94649.69
2023-03-03T00:05:54.973Z,94661.38
2023-03-03T00:08:22.916Z,94655.50
2023-03-03T00:10:50.502Z,94656.09
2023-03-03T00:13:25.554Z,94650.69
2023-03-03T00:15:53.554Z,94660.22
2023-03-03T00:18:35.997Z,94649.69
2023-03-03T00:21:15.831Z,94652.78
2023-03-03T00:23:45.341Z,94652.78
2023-03-03T00:26:22.757Z,94657.13
2023-03-03T00:28:53.218Z,94654.78
2023-03-03T00:31:35.072Z,94635.41
2023-03-03T00:34:26.216Z,94650.31
2023-03-03T00:36:58.421Z,94642.66
2023-03-03T00:39:37.418Z,94653.50
2023-03-03T00:42:15.482Z,94646.78
2023-03-03T00:44:57.321Z,94634.06
2023-03-03T00:47:31.636Z,94638.91
2023-03-03T00:50:07.409Z,94646.47
2023-03-03T00:52:48.761Z,94644.06
2023-03-03T00:55:15.512Z,94649.88
2023-03-03T00:57:42.274Z,94646.56
2023-03-03T01:00:10.255Z,94652.13
2023-03-03T01:02:37.012Z,94653.69
2023-03-03T01:05:03.963Z,94660.59
2023-03-03T01:07:30.699Z,94660.00
2023-03-03T01:09:57.459Z,94653.78
2023-03-03T01:12:24.619Z,94649.06
2023-03-03T01:14:53.190Z,94648.72
2023-03-03T01:17:20.035Z,94646.13
2023-03-03T01:19:46.772Z,94649.53
2023-03-03T01:22:13.507Z,94636.69
2023-03-03T01:24:40.291Z,94645.91
2023-03-03T01:27:07.012Z,94642.00
2023-03-03T01:29:33.774Z,94644.59
2023-03-03T01:32:00.525Z,94641.66
2023-03-03T01:34:27.284Z,94645.41
2023-03-03T01:36:54.017Z,94640.44
2023-03-03T01:39:20.804Z,94632.66
2023-03-03T01:41:47.525Z,94632.78
2023-03-03T01:44:15.852Z,94637.03
2023-03-03T01:46:55.277Z,94633.97
2023-03-03T01:49:29.506Z,94641.59
2023-03-03T01:52:01.457Z,94635.94
2023-03-03T01:54:35.776Z,94637.47
2023-03-03T01:57:11.371Z,94628.38
2023-03-03T01:59:45.397Z,94632.13
2023-03-03T02:02:12.489Z,94634.81
2023-03-03T02:04:39.760Z,94627.63
2023-03-03T02:07:11.249Z,94630.91
2023-03-03T02:09:59.257Z,94627.81
2023-03-03T02:12:38.509Z,94618.72
2023-03-03T02:15:18.916Z,94625.78
2023-03-03T02:17:47.323Z,94618.66
2023-03-03T02:20:49.509Z,94621.47
2023-03-03T02:23:51.471Z,94623.00
2023-03-03T02:26:41.689Z,94623.53
2023-03-03T02:29:10.040Z,94611.75
2023-03-03T02:31:38.673Z,94617.88
2023-03-03T02:34:05.950Z,94613.00
2023-03-03T02:36:37.200Z,94613.75
2023-03-03T02:39:26.883Z,94610.66
2023-03-03T02:42:06.266Z,94605.38
2023-03-03T02:44:33.770Z,94598.28
2023-03-03T02:47:01.285Z,94603.44
2023-03-03T02:49:32.343Z,94611.09
2023-03-03T02:52:00.557Z,94611.09
2023-03-03T02:54:31.005Z,94608.50
2023-03-03T02:56:59.542Z,94614.72
2023-03-03T02:59:26.334Z,94606.84
2023-03-03T03:01:53.662Z,94605.31
2023-03-03T03:04:24.464Z,94607.81
2023-03-03T03:06:53.063Z,94615.75
2023-03-03T03:09:22.302Z,94610.00
2023-03-03T03:11:49.296Z,94606.66
2023-03-03T03:14:16.146Z,94601.72
2023-03-03T03:16:43.036Z,94604.19
2023-03-03T03:19:09.996Z,94604.19
2023-03-03T03:21:37.002Z,94605.22
2023-03-03T03:24:03.825Z,94608.53
2023-03-03T03:26:30.665Z,94605.44
2023-03-03T03:28:57.479Z,94609.56
2023-03-03T03:31:25.918Z,94614.72
2023-03-03T03:33:53.124Z,94614.31
2023-03-03T03:36:20.107Z,94607.50
2023-03-03T03:38:46.836Z,94618.34
2023-03-03T03:41:14.007Z,94619.91
2023-03-03T03:43:41.056Z,94617.53
2023-03-03T03:46:08.635Z,94613.28
2023-03-03T03:48:35.949Z,94631.47
2023-03-03T03:51:03.490Z,94625.59
2023-03-03T03:53:30.917Z,94617.97
2023-03-03T03:55:57.951Z,94614.34
2023-03-03T03:58:24.751Z,94627.75
2023-03-03T04:00:51.550Z,94620.31
2023-03-03T04:03:18.574Z,94614.44
2023-03-03T04:05:45.432Z,94625.78
2023-03-03T04:08:12.686Z,94623.63
2023-03-03T04:10:39.669Z,94621.34
2023-03-03T04:13:06.458Z,94619.47
2023-03-03T04:15:33.324Z,94617.22
2023-03-03T04:18:00.133Z,94623.84
2023-03-03T04:20:26.904Z,94618.25
2023-03-03T04:22:53.773Z,94624.84
2023-03-03T04:25:20.580Z,94619.06
2023-03-03T04:27:47.347Z,94631.69
2023-03-03T04:30:16.237Z,94632.53
2023-03-03T04:32:43.101Z,94621.22
2023-03-03T04:35:11.291Z,94627.75
2023-03-03T04:37:39.109Z,94625.06
2023-03-03T04:40:08.833Z,94614.72
2023-03-03T04:42:36.344Z,94618.25
2023-03-03T04:45:04.761Z,94635.22
2023-03-03T04:47:32.697Z,94620.59
2023-03-03T04:50:00.932Z,94625.16
2023-03-03T04:52:28.322Z,94621.94
2023-03-03T04:54:55.100Z,94623.81
2023-03-03T04:57:21.843Z,94621.94
2023-03-03T04:59:48.973Z,94614.19
2023-03-03T05:02:15.807Z,94621.31
2023-03-03T05:04:42.580Z,94616.25
2023-03-03T05:07:09.879Z,94618.53
2023-03-03T05:09:37.351Z,94623.72
2023-03-03T05:12:04.556Z,94628.16
2023-03-03T05:14:31.646Z,94622.16
2023-03-03T05:16:58.457Z,94616.16
2023-03-03T05:19:25.572Z,94623.00
2023-03-03T05:21:52.311Z,94625.59
2023-03-03T05:24:19.064Z,94628.16
2023-03-03T05:26:45.837Z,94639.00
2023-03-03T05:29:12.568Z,94640.78
2023-03-03T05:31:39.521Z,94634.78
2023-03-03T05:34:06.284Z,94634.13
2023-03-03T05:36:33.007Z,94628.94
2023-03-03T05:38:59.745Z,94643.47
2023-03-03T05:41:26.585Z,94640.88
2023-03-03T05:43:53.356Z,94628.38
2023-03-03T05:46:20.193Z,94647.69
2023-03-03T05:48:47.001Z,94649.44
2023-03-03T05:51:14.213Z,94653.25
2023-03-03T05:53:41.299Z,94662.88
2023-03-03T05:56:08.332Z,94654.72
2023-03-03T05:58:35.908Z,94660.28
2023-03-03T06:01:02.812Z,94649.94
2023-03-03T06:03:29.564Z,94663.41
2023-03-03T06:05:56.341Z,94663.50
2023-03-03T06:08:23.253Z,94664.44
2023-03-03T06:10:50.030Z,94664.53
2023-03-03T06:13:16.804Z,94674.69
2023-03-03T06:15:44.267Z,94677.06
2023-03-03T06:18:11.281Z,94677.06
2023-03-03T06:20:38.864Z,94672.81
2023-03-03T06:23:05.946Z,94673.84
2023-03-03T06:25:35.776Z,94678.91
2023-03-03T06:28:03.890Z,94677.28
2023-03-03T06:30:30.862Z,94680.47
2023-03-03T06:32:57.667Z,94682.94
2023-03-03T06:35:24.567Z,94693.06
2023-03-03T06:37:51.925Z,94694.13
2023-03-03T06:40:18.848Z,94676.84
2023-03-03T06:42:45.939Z,94688.31
2023-03-03T06:45:13.459Z,94689.38
2023-03-03T06:47:40.541Z,94698.03
2023-03-03T06:50:10.192Z,94702.50
2023-03-03T06:52:36.925Z,94684.09
2023-03-03T06:55:14.093Z,94692.16
2023-03-03T06:57:41.393Z,94706.44
2023-03-03T07:00:27.945Z,94707.78
2023-03-03T07:03:04.949Z,94701.66
2023-03-03T07:05:33.211Z,94707.53
2023-03-03T07:08:00.103Z,94708.25
2023-03-03T07:10:31.137Z,94710.84
2023-03-03T07:13:15.679Z,94712.91
2023-03-03T07:15:42.424Z,94712.00
2023-03-03T07:18:40.902Z,94708.25
2023-03-03T07:21:16.872Z,94710.31
2023-03-03T07:23:45.609Z,94715.59
2023-03-03T07:26:18.382Z,94717.13
2023-03-03T07:28:53.695Z,94712.91
2023-03-03T07:31:37.191Z,94722.81
2023-03-03T07:34:22.290Z,94721.88
2023-03-03T07:36:51.601Z,94717.81
2023-03-03T07:39:40.532Z,94722.16
2023-03-03T07:42:32.370Z,94729.50
2023-03-03T07:45:01.099Z,94727.94
2023-03-03T07:47:36.459Z,94714.91
2023-03-03T07:50:18.935Z,94722.75
2023-03-03T07:53:01.603Z,94730.78
2023-03-03T07:55:40.009Z,94728.91
2023-03-03T07:58:23.853Z,94745.25
2023-03-03T08:01:29.601Z,94742.22
2023-03-03T08:03:57.726Z,94736.06
2023-03-03T08:06:45.913Z,94737.34
2023-03-03T08:09:12.577Z,94743.63
2023-03-03T08:11:55.774Z,94742.94
2023-03-03T08:14:28.263Z,94743.22
2023-03-03T08:16:58.758Z,94748.69
2023-03-03T08:19:28.374Z,94757.94
2023-03-03T08:22:18.352Z,94752.91
2023-03-03T08:24:45.185Z,94743.75
2023-03-03T08:27:11.965Z,94739.19
2023-03-03T08:29:39.180Z,94751.25
2023-03-03T08:32:06.248Z,94743.78
2023-03-03T08:34:33.060Z,94745.81
2023-03-03T08:36:59.914Z,94743.00
2023-03-03T08:39:26.706Z,94747.47
2023-03-03T08:41:53.456Z,94743.13
2023-03-03T08:44:20.811Z,94748.00
2023-03-03T08:46:47.724Z,94743.16
2023-03-03T08:49:14.711Z,94735.88
2023-03-03T08:51:42.096Z,94747.81
2023-03-03T08:54:09.245Z,94747.66
2023-03-03T08:56:36.471Z,94750.25
2023-03-03T08:59:03.683Z,94754.97
2023-03-03T09:01:32.694Z,94745.41
2023-03-03T09:03:59.760Z,94753.81
2023-03-03T09:06:26.631Z,94746.97
2023-03-03T09:08:55.012Z,94755.44
2023-03-03T09:11:28.038Z,94761.00
2023-03-03T09:14:02.810Z,94763.72
2023-03-03T09:16:38.988Z,94761.59
2023-03-03T09:19:32.528Z,94758.84
2023-03-03T09:22:24.508Z,94761.09
2023-03-03T09:24:56.201Z,94766.50
2023-03-03T09:27:30.042Z,94764.25
2023-03-03T09:30:03.563Z,94757.41
2023-03-03T09:32:43.282Z,94761.56
2023-03-03T09:35:39.063Z,94758.78
2023-03-03T09:38:33.162Z,94757.69
2023-03-03T09:41:21.454Z,94764.25
2023-03-03T09:44:07.042Z,94755.75
2023-03-03T09:47:03.663Z,94761.84
2023-03-03T09:50:15.596Z,94770.78
2023-03-03T09:53:15.424Z,94771.97
2023-03-03T09:56:01.914Z,94774.56
2023-03-03T09:58:46.353Z,94783.72
2023-03-03T10:01:38.548Z,94779.53
2023-03-03T10:04:44.257Z,94777.69
2023-03-03T10:07:40.425Z,94765.06
2023-03-03T10:10:34.162Z,94775.97
2023-03-03T10:13:52.157Z,94776.06
2023-03-03T10:16:49.887Z,94779.66
2023-03-03T10:19:39.584Z,94780.50
2023-03-03T10:22:20.818Z,94781.38
2023-03-03T10:25:28.088Z,94784.13
2023-03-03T10:28:34.431Z,94779.41
2023-03-03T10:31:14.901Z,94784.63
2023-03-03T10:34:00.654Z,94783.28
2023-03-03T10:36:43.930Z,94775.75
2023-03-03T10:39:34.734Z,94786.19
2023-03-03T10:42:24.749Z,94787.63
2023-03-03T10:45:13.543Z,94785.69
2023-03-03T10:48:14.201Z,94786.03
2023-03-03T10:51:19.340Z,94774.13
2023-03-03T10:54:44.106Z,94777.13
2023-03-03T10:57:27.979Z,94774.06
2023-03-03T11:00:26.598Z,94776.28
2023-03-03T11:03:33.890Z,94770.44
2023-03-03T11:06:20.773Z,94777.59
2023-03-03T11:09:17.240Z,94768.47
2023-03-03T11:11:43.991Z,94762.63
2023-03-03T11:14:50.529Z,94767.41
2023-03-03T11:17:29.932Z,94764.44
2023-03-03T11:20:33.316Z,94769.03
2023-03-03T11:23:44.472Z,94767.56
2023-03-03T11:26:54.598Z,94756.66
2023-03-03T11:30:01.076Z,94768.63
2023-03-03T11:32:43.148Z,94756.28
2023-03-03T11:35:37.085Z,94752.53
2023-03-03T11:38:36.610Z,94749.66
2023-03-03T11:41:20.754Z,94750.16
2023-03-03T11:44:00.263Z,94747.69
2023-03-03T11:46:37.149Z,94742.53
2023-03-03T11:49:12.018Z,94745.91
2023-03-03T11:51:50.617Z,94733.75
2023-03-03T11:54:34.818Z,94754.41
2023-03-03T11:57:21.065Z,94745.69
2023-03-03T12:00:28.951Z,94746.88
2023-03-03T12:03:28.042Z,94739.41
2023-03-03T12:06:12.485Z,94744.34
2023-03-03T12:09:01.111Z,94735.09
2023-03-03T12:11:38.002Z,94741.00
2023-03-03T12:14:52.041Z,94732.91
2023-03-03T12:17:46.211Z,94740.38
2023-03-03T12:20:52.155Z,94742.53
2023-03-03T12:23:43.051Z,94744.09
2023-03-03T12:26:34.501Z,94737.22
2023-03-03T12:29:53.591Z,94730.34
2023-03-03T12:32:41.751Z,94728.38
2023-03-03T12:35:18.224Z,94720.72
2023-03-03T12:37:55.029Z,94721.25
2023-03-03T12:40:36.242Z,94725.59
2023-03-03T12:43:26.539Z,94722.47
2023-03-03T12:46:07.973Z,94725.59
2023-03-03T12:48:52.438Z,94712.50
2023-03-03T12:51:37.506Z,94720.72
2023-03-03T12:54:38.118Z,94718.25
2023-03-03T12:57:31.338Z,94713.03
2023-03-03T13:00:28.531Z,94718.28
2023-03-03T13:03:17.943Z,94714.34
2023-03-03T13:06:16.283Z,94711.03
2023-03-03T13:09:07.293Z,94721.69
2023-03-03T13:12:08.203Z,94722.03
2023-03-03T13:15:01.558Z,94714.16
2023-03-03T13:17:35.712Z,94710.88
2023-03-03T13:20:40.851Z,94717.97
2023-03-03T13:23:17.822Z,94707.94
2023-03-03T13:25:49.752Z,94709.91
2023-03-03T13:28:28.845Z,94695.13
2023-03-03T13:31:22.095Z,94703.00
2023-03-03T13:34:02.047Z,94705.97
2023-03-03T13:36:54.217Z,94695.13
2023-03-03T13:39:27.458Z,94699.06
2023-03-03T13:42:06.917Z,94707.13
2023-03-03T13:44:43.293Z,94697.09
2023-03-03T13:47:30.860Z,94692.50
2023-03-03T13:50:36.650Z,94700.06
2023-03-03T13:53:12.044Z,94693.81
2023-03-03T13:56:50.354Z,94685.28
2023-03-03T13:59:35.966Z,94698.25
2023-03-03T14:02:26.292Z,94681.00
2023-03-03T14:05:12.670Z,94685.78
2023-03-03T14:08:07.751Z,94678.38
2023-03-03T14:10:52.862Z,94686.94
2023-03-03T14:13:47.213Z,94685.91
2023-03-03T14:16:34.835Z,94682.97
2023-03-03T14:19:30.873Z,94678.19
2023-03-03T14:21:57.980Z,94683.28
2023-03-03T14:24:26.588Z,94680.66
2023-03-03T14:26:59.036Z,94680.00
2023-03-03T14:29:28.836Z,94686.09
2023-03-03T14:31:58.391Z,94684.13
2023-03-03T14:34:41.216Z,94682.97
2023-03-03T14:37:43.603Z,94687.91
2023-03-03T14:40:20.300Z,94671.31
2023-03-03T14:42:52.961Z,94680.66
2023-03-03T14:45:41.895Z,94677.22
2023-03-03T14:48:24.992Z,94679.53
2023-03-03T14:51:04.763Z,94669.00
2023-03-03T14:53:38.503Z,94663.41
2023-03-03T14:56:49.467Z,94665.88
2023-03-03T14:59:20.125Z,94669.69
2023-03-03T15:01:47.891Z,94660.78
2023-03-03T15:04:23.968Z,94676.09
2023-03-03T15:06:53.980Z,94675.44
2023-03-03T15:09:43.385Z,94658.00
2023-03-03T15:12:26.238Z,94672.44
2023-03-03T15:15:05.543Z,94672.28
2023-03-03T15:17:40.748Z,94672.47
2023-03-03T15:20:22.820Z,94676.22
2023-03-03T15:23:16.344Z,94669.00
2023-03-03T15:26:09.917Z,94666.06
2023-03-03T15:29:02.706Z,94668.19
2023-03-03T15:31:37.119Z,94675.72
2023-03-03T15:34:34.810Z,94678.34
2023-03-03T15:37:39.418Z,94674.91
2023-03-03T15:40:21.323Z,94685.56
2023-03-03T15:43:12.131Z,94686.22
2023-03-03T15:45:58.073Z,94676.53
2023-03-03T15:49:12.317Z,94681.72
2023-03-03T15:52:03.155Z,94696.19
2023-03-03T15:54:57.202Z,94689.59
2023-03-03T15:57:46.773Z,94692.34
2023-03-03T16:00:38.843Z,94703.31
2023-03-03T16:03:15.419Z,94697.56
2023-03-03T16:05:54.608Z,94706.72
2023-03-03T16:09:07.044Z,94703.22
2023-03-03T16:11:50.370Z,94708.75
2023-03-03T16:14:33.446Z,94698.00
2023-03-03T16:17:24.369Z,94719.31
2023-03-03T16:20:03.637Z,94723.31
2023-03-03T16:22:50.162Z,94721.94
2023-03-03T16:25:47.150Z,94729.28
2023-03-03T16:28:16.748Z,94726.81
2023-03-03T16:31:41.329Z,94726.09
2023-03-03T16:34:36.973Z,94732.97
2023-03-03T16:37:44.329Z,94740.03
2023-03-03T16:40:36.042Z,94744.44
2023-03-03T16:43:21.807Z,94737.19
2023-03-03T16:45:48.995Z,94737.34
2023-03-03T16:48:32.915Z,94744.25
2023-03-03T16:51:14.520Z,94744.31
2023-03-03T16:54:03.019Z,94747.09
2023-03-03T16:57:06.412Z,94747.47
2023-03-03T16:59:51.242Z,94754.13
2023-03-03T17:03:04.346Z,94748.13
2023-03-03T17:05:45.030Z,94758.91
2023-03-03T17:08:20.654Z,94759.50
2023-03-03T17:11:35.104Z,94763.31
2023-03-03T17:14:20.224Z,94765.16
2023-03-03T17:17:08.149Z,94767.00
2023-03-03T17:19:37.630Z,94776.44
2023-03-03T17:22:19.108Z,94764.38
2023-03-03T17:25:13.169Z,94784.94
2023-03-03T17:28:13.533Z,94782.78
2023-03-03T17:30:55.181Z,94781.38
2023-03-03T17:33:37.007Z,94795.84
2023-03-03T17:36:24.683Z,94798.31
2023-03-03T17:39:31.508Z,94811.94
2023-03-03T17:42:19.136Z,94810.25
2023-03-03T17:45:00.472Z,94805.97
2023-03-03T17:47:57.283Z,94818.88
2023-03-03T17:50:54.501Z,94817.91
2023-03-03T17:53:56.361Z,94816.34
2023-03-03T17:56:57.950Z,94824.41
2023-03-03T17:59:59.035Z,94840.72
2023-03-03T18:02:32.350Z,94837.38
2023-03-03T18:05:45.722Z,94848.16
2023-03-03T18:08:24.207Z,94843.88
2023-03-03T18:11:30.232Z,94848.47
2023-03-03T18:14:26.300Z,94856.09
2023-03-03T18:17:04.984Z,94860.97
2023-03-03T18:20:00.350Z,94841.66
2023-03-03T18:22:34.843Z,94865.50
2023-03-03T18:25:20.271Z,94859.84
2023-03-03T18:28:08.405Z,94852.59
2023-03-03T18:30:58.651Z,94852.91
2023-03-03T18:34:03.876Z,94859.81
2023-03-03T18:36:32.009Z,94866.69
2023-03-03T18:39:03.083Z,94865.53
2023-03-03T18:42:04.439Z,94872.38
2023-03-03T18:44:32.095Z,94873.81
2023-03-03T18:47:01.581Z,94872.41
2023-03-03T18:49:58.046Z,94887.72
2023-03-03T18:52:31.396Z,94880.75
2023-03-03T18:55:10.152Z,94898.91
2023-03-03T18:57:38.594Z,94889.66
2023-03-03T19:00:25.919Z,94892.22
2023-03-03T19:02:59.195Z,94882.56
2023-03-03T19:05:30.928Z,94889.66
2023-03-03T19:08:03.130Z,94884.91
2023-03-03T19:10:52.461Z,94891.00
2023-03-03T19:13:34.341Z,94901.47
2023-03-03T19:16:06.451Z,94886.00
2023-03-03T19:18:41.995Z,94905.00
2023-03-03T19:21:11.586Z,94908.16
2023-03-03T19:24:00.651Z,94904.00
2023-03-03T19:26:30.492Z,94899.44
2023-03-03T19:29:46.295Z,94896.13
2023-03-03T19:32:44.273Z,94909.25
2023-03-03T19:35:46.187Z,94906.75
2023-03-03T19:38:31.310Z,94907.28
2023-03-03T19:41:22.973Z,94909.03
2023-03-03T19:44:27.896Z,94905.75
2023-03-03T19:47:11.985Z,94909.34
2023-03-03T19:50:06.338Z,94911.75
2023-03-03T19:52:42.122Z,94916.59
2023-03-03T19:55:30.741Z,94916.41
2023-03-03T19:58:25.926Z,94920.03
2023-03-03T20:01:32.653Z,94920.88
2023-03-03T20:04:32.479Z,94920.47
2023-03-03T20:07:29.183Z,94923.75
2023-03-03T20:10:12.916Z,94921.06
2023-03-03T20:12:47.783Z,94927.78
2023-03-03T20:15:28.730Z,94926.19
2023-03-03T20:18:01.442Z,94930.22
2023-03-03T20:20:55.542Z,94935.72
2023-03-03T20:24:18.568Z,94940.91
2023-03-03T20:27:10.726Z,94937.09
2023-03-03T20:29:59.367Z,94935.94
2023-03-03T20:33:11.672Z,94930.22
2023-03-03T20:36:10.542Z,94935.16
2023-03-03T20:39:06.425Z,94946.47
2023-03-03T20:42:14.019Z,94949.72
2023-03-03T20:44:53.565Z,94945.75
2023-03-03T20:47:46.080Z,94954.22
2023-03-03T20:50:35.433Z,94959.41
2023-03-03T20:53:29.385Z,94957.94
2023-03-03T20:56:17.878Z,94964.97
2023-03-03T20:59:13.471Z,94953.94
2023-03-03T21:02:00.719Z,94959.63
2023-03-03T21:04:37.075Z,94960.13
2023-03-03T21:07:05.418Z,94950.72
2023-03-03T21:09:39.836Z,94958.56
2023-03-03T21:12:30.055Z,94965.00
2023-03-03T21:15:05.733Z,94955.91
2023-03-03T21:17:32.527Z,94961.81
2023-03-03T21:20:19.428Z,94967.06
2023-03-03T21:22:46.586Z,94956.31
2023-03-03T21:25:48.201Z,94965.53
2023-03-03T21:28:32.227Z,94963.50
2023-03-03T21:31:15.600Z,94963.59
2023-03-03T21:33:50.668Z,94970.44
2023-03-03T21:36:32.753Z,94963.28
2023-03-03T21:39:02.228Z,94953.47
2023-03-03T21:41:53.137Z,94966.00
2023-03-03T21:44:44.781Z,94972.75
2023-03-03T21:47:15.170Z,94955.78
2023-03-03T21:49:43.693Z,94973.50
2023-03-03T21:52:12.223Z,94948.03
2023-03-03T21:54:39.708Z,94965.78
2023-03-03T21:57:06.867Z,94952.06
2023-03-03T21:59:33.634Z,94958.91
2023-03-03T22:02:00.545Z,94967.00
2023-03-03T22:04:27.353Z,94948.16
2023-03-03T22:06:54.197Z,94959.34
2023-03-03T22:09:21.046Z,94952.25
2023-03-03T22:11:48.276Z,94960.34
2023-03-03T22:14:15.340Z,94952.00
2023-03-03T22:16:42.335Z,94963.88
2023-03-03T22:19:09.731Z,94954.84
2023-03-03T22:21:38.446Z,94958.84
2023-03-03T22:24:06.815Z,94963.19
2023-03-03T22:26:33.821Z,94960.78
2023-03-03T22:29:00.848Z,94963.94
2023-03-03T22:31:27.889Z,94955.06
2023-03-03T22:33:54.673Z,94951.22
2023-03-03T22:36:21.637Z,94954.19
2023-03-03T22:38:49.002Z,94963.41
2023-03-03T22:41:16.298Z,94964.78
2023-03-03T22:43:43.282Z,94958.63
2023-03-03T22:46:10.623Z,94963.66
2023-03-03T22:48:38.658Z,94966.09
2023-03-03T22:51:06.144Z,94970.78
2023-03-03T22:53:33.384Z,94958.59
2023-03-03T22:56:00.303Z,94968.03
2023-03-03T22:58:27.059Z,94974.47
2023-03-03T23:00:54.527Z,94972.16
2023-03-03T23:03:21.892Z,94967.81
2023-03-03T23:05:51.678Z,94970.25
2023-03-03T23:08:20.493Z,94973.72
2023-03-03T23:10:48.561Z,94962.66
2023-03-03T23:13:16.174Z,94959.63
2023-03-03T23:15:43.332Z,94964.88
2023-03-03T23:18:10.498Z,94958.69
2023-03-03T23:20:37.811Z,94971.97
2023-03-03T23:23:05.057Z,94968.47
2023-03-03T23:25:31.884Z,94972.63
2023-03-03T23:27:59.063Z,94972.03
2023-03-03T23:30:26.296Z,94975.13
2023-03-03T23:32:53.905Z,94962.81
2023-03-03T23:35:20.725Z,94969.28
2023-03-03T23:37:47.814Z,94979.53
2023-03-03T23:40:16.412Z,94974.53
2023-03-03T23:42:43.928Z,94972.03
2023-03-03T23:45:12.966Z,94982.13
2023-03-03T23:47:39.941Z,94976.09
2023-03-03T23:50:07.589Z,94977.19
2023-03-03T23:52:34.388Z,94974.06
2023-03-03T23:55:02.061Z,94973.97
2023-03-03T23:57:29.048Z,94979.22
2023-03-03T23:59:55.865Z,94970.91
